createdAt,value
2018-01-23T00:01:05.711Z,8.80
2018-01-23T00:03:33.240Z,8.80
2018-01-23T00:06:01.041Z,8.80
2018-01-23T00:08:28.560Z,8.80
2018-01-23T00:10:56.104Z,8.90
2018-01-23T00:13:23.649Z,8.90
2018-01-23T00:15:51.198Z,8.90
2018-01-23T00:18:18.739Z,8.90
2018-01-23T00:20:46.275Z,8.90
2018-01-23T00:23:13.788Z,8.90
2018-01-23T00:25:41.337Z,8.90
2018-01-23T00:28:08.855Z,8.90
2018-01-23T00:30:36.395Z,8.90
2018-01-23T00:33:03.955Z,8.80
2018-01-23T00:35:31.540Z,8.90
2018-01-23T00:37:59.058Z,8.90
2018-01-23T00:40:26.613Z,8.90
2018-01-23T00:42:54.586Z,8.90
2018-01-23T00:45:22.118Z,8.80
2018-01-23T00:47:50.439Z,8.90
2018-01-23T00:50:17.978Z,8.90
2018-01-23T00:52:45.484Z,8.90
2018-01-23T00:55:13.039Z,8.80
2018-01-23T00:57:40.552Z,8.80
2018-01-23T01:00:08.091Z,8.80
2018-01-23T01:02:35.615Z,8.80
2018-01-23T01:05:03.139Z,8.80
2018-01-23T01:07:30.694Z,8.80
2018-01-23T01:09:58.200Z,8.60
2018-01-23T01:12:25.759Z,8.70
2018-01-23T01:14:53.302Z,8.60
2018-01-23T01:17:20.811Z,8.60
2018-01-23T01:19:49.109Z,8.50
2018-01-23T01:22:16.612Z,8.50
2018-01-23T01:24:44.168Z,8.60
2018-01-23T01:27:11.721Z,8.60
2018-01-23T01:29:39.262Z,8.60
2018-01-23T01:32:06.784Z,8.60
2018-01-23T01:34:34.302Z,8.70
2018-01-23T01:37:01.843Z,8.70
2018-01-23T01:39:29.363Z,8.70
2018-01-23T01:41:56.915Z,8.60
2018-01-23T01:44:25.199Z,8.60
2018-01-23T01:46:52.749Z,8.50
2018-01-23T01:49:21.045Z,8.60
2018-01-23T01:51:48.571Z,8.60
2018-01-23T01:54:16.846Z,8.60
2018-01-23T01:56:44.395Z,8.60
2018-01-23T01:59:11.903Z,8.70
2018-01-23T02:01:39.442Z,8.70
2018-01-23T02:04:06.955Z,8.60
2018-01-23T02:06:34.495Z,8.50
2018-01-23T02:09:02.018Z,8.50
2018-01-23T02:11:30.336Z,8.50
2018-01-23T02:13:57.923Z,8.50
2018-01-23T02:16:25.440Z,8.40
2018-01-23T02:18:52.971Z,8.40
2018-01-23T02:24:02.526Z,8.40
2018-01-23T02:26:30.047Z,8.40
2018-01-23T02:28:57.591Z,8.40
2018-01-23T02:31:25.135Z,8.40
2018-01-23T02:33:52.677Z,8.40
2018-01-23T02:36:20.180Z,8.40
2018-01-23T02:38:47.736Z,8.40
2018-01-23T02:41:15.259Z,8.40
2018-01-23T02:43:42.772Z,8.40
2018-01-23T02:46:10.315Z,8.40
2018-01-23T02:48:37.822Z,8.40
2018-01-23T02:51:05.367Z,8.40
2018-01-23T02:53:33.689Z,8.40
2018-01-23T02:56:03.996Z,8.40
2018-01-23T02:58:31.592Z,8.40
2018-01-23T03:00:59.196Z,8.50
2018-01-23T03:03:27.525Z,8.40
2018-01-23T03:05:55.050Z,8.40
2018-01-23T03:08:23.429Z,8.50
2018-01-23T03:10:51.019Z,8.40
2018-01-23T03:13:18.552Z,8.40
2018-01-23T03:15:46.116Z,8.40
2018-01-23T03:18:13.683Z,8.50
2018-01-23T03:20:41.218Z,8.50
2018-01-23T03:23:08.779Z,8.60
2018-01-23T03:25:37.105Z,8.70
2018-01-23T03:28:04.640Z,8.70
2018-01-23T03:30:32.242Z,8.60
2018-01-23T03:32:59.787Z,8.60
2018-01-23T03:35:27.305Z,8.50
2018-01-23T03:37:54.853Z,8.50
2018-01-23T03:40:22.419Z,8.50
2018-01-23T03:42:49.940Z,8.50
2018-01-23T03:45:17.491Z,8.50
2018-01-23T03:47:45.000Z,8.50
2018-01-23T03:50:12.549Z,8.60
2018-01-23T03:52:40.114Z,8.60
2018-01-23T03:55:07.650Z,8.60
2018-01-23T03:57:35.155Z,8.60
2018-01-23T04:00:02.741Z,8.50
2018-01-23T04:02:30.260Z,8.60
2018-01-23T04:04:57.815Z,8.60
2018-01-23T04:07:25.753Z,8.70
2018-01-23T04:09:53.375Z,8.70
2018-01-23T04:12:20.899Z,8.60
2018-01-23T04:14:48.435Z,8.60
2018-01-23T04:17:15.983Z,8.60
2018-01-23T04:19:43.548Z,8.60
2018-01-23T04:22:11.068Z,8.60
2018-01-23T04:24:38.621Z,8.60
2018-01-23T04:27:06.137Z,8.50
2018-01-23T04:29:33.666Z,8.50
2018-01-23T04:32:01.229Z,8.50
2018-01-23T04:34:28.765Z,8.50
2018-01-23T04:36:56.312Z,8.50
2018-01-23T04:39:23.885Z,8.50
2018-01-23T04:41:51.412Z,8.50
2018-01-23T04:44:18.932Z,8.50
2018-01-23T04:46:46.499Z,8.50
2018-01-23T04:49:14.014Z,8.60
2018-01-23T04:51:41.585Z,8.60
2018-01-23T04:54:09.951Z,8.60
2018-01-23T04:56:37.472Z,8.60
2018-01-23T04:59:05.093Z,8.60
2018-01-23T05:01:32.684Z,8.60
2018-01-23T05:04:01.126Z,8.60
2018-01-23T05:06:28.655Z,8.60
2018-01-23T05:08:56.212Z,8.60
2018-01-23T05:11:23.737Z,8.50
2018-01-23T05:13:51.308Z,8.60
2018-01-23T05:16:18.828Z,8.70
2018-01-23T05:18:46.401Z,8.70
2018-01-23T05:21:13.943Z,8.60
2018-01-23T05:23:41.505Z,8.70
2018-01-23T05:26:09.013Z,8.50
2018-01-23T05:28:37.330Z,8.60
2018-01-23T05:31:04.867Z,8.50
2018-01-23T05:33:32.416Z,8.60
2018-01-23T05:35:59.931Z,8.60
2018-01-23T05:38:28.362Z,8.60
2018-01-23T05:40:55.910Z,8.70
2018-01-23T05:43:24.224Z,8.70
2018-01-23T05:45:51.779Z,8.70
2018-01-23T05:48:19.305Z,8.70
2018-01-23T05:50:46.868Z,8.70
2018-01-23T05:53:14.456Z,8.70
2018-01-23T05:55:42.015Z,8.70
2018-01-23T05:58:09.569Z,8.70
2018-01-23T06:00:37.079Z,8.70
2018-01-23T06:03:04.679Z,8.70
2018-01-23T06:05:32.206Z,8.70
2018-01-23T06:07:59.768Z,8.60
2018-01-23T06:10:27.324Z,8.60
2018-01-23T06:12:54.843Z,8.60
2018-01-23T06:15:22.407Z,8.70
2018-01-23T06:17:49.965Z,8.70
2018-01-23T06:20:17.494Z,8.70
2018-01-23T06:22:45.068Z,8.70
2018-01-23T06:25:12.616Z,8.70
2018-01-23T06:27:41.073Z,8.80
2018-01-23T06:30:08.643Z,8.80
2018-01-23T06:32:36.152Z,8.80
2018-01-23T06:35:03.688Z,8.80
2018-01-23T06:37:31.234Z,8.80
2018-01-23T06:39:58.758Z,8.70
2018-01-23T06:42:26.358Z,8.70
2018-01-23T06:44:54.619Z,8.70
2018-01-23T06:47:22.219Z,8.70
2018-01-23T06:49:49.752Z,8.70
2018-01-23T06:52:17.272Z,8.70
2018-01-23T06:54:45.145Z,8.70
2018-01-23T06:57:13.486Z,8.80
2018-01-23T06:59:41.044Z,8.80
2018-01-23T07:02:08.576Z,8.70
2018-01-23T07:04:36.450Z,8.70
2018-01-23T07:07:04.012Z,8.80
2018-01-23T07:09:31.623Z,8.80
2018-01-23T07:11:59.183Z,8.60
2018-01-23T07:14:26.738Z,8.60
2018-01-23T07:16:54.264Z,8.60
2018-01-23T07:19:21.845Z,8.60
2018-01-23T07:21:49.436Z,8.60
2018-01-23T07:24:16.961Z,8.60
2018-01-23T07:26:44.517Z,8.50
2018-01-23T07:29:15.892Z,8.50
2018-01-23T07:31:43.460Z,8.60
2018-01-23T07:34:11.833Z,8.60
2018-01-23T07:36:39.440Z,8.60
2018-01-23T07:39:07.875Z,8.50
2018-01-23T07:41:35.412Z,8.60
2018-01-23T07:44:03.020Z,8.60
2018-01-23T07:46:30.656Z,8.60
2018-01-23T07:48:58.389Z,8.60
2018-01-23T07:51:25.995Z,8.60
2018-01-23T07:53:53.567Z,8.60
2018-01-23T07:56:21.184Z,8.60
2018-01-23T07:58:48.909Z,8.60
2018-01-23T08:01:16.469Z,8.50
2018-01-23T08:03:44.061Z,8.60
2018-01-23T08:06:11.627Z,8.60
2018-01-23T08:08:39.290Z,8.60
2018-01-23T08:11:06.878Z,8.60
2018-01-23T08:13:34.438Z,8.70
2018-01-23T08:16:02.010Z,8.70
2018-01-23T08:18:29.590Z,8.70
2018-01-23T08:20:57.117Z,8.70
2018-01-23T08:23:24.684Z,8.80
2018-01-23T08:25:53.040Z,8.80
2018-01-23T08:28:20.576Z,8.70
2018-01-23T08:30:48.213Z,8.80
2018-01-23T08:33:15.732Z,8.70
2018-01-23T08:35:44.054Z,8.70
2018-01-23T08:38:11.662Z,8.80
2018-01-23T08:40:39.191Z,8.70
2018-01-23T08:43:07.610Z,8.80
2018-01-23T08:45:35.151Z,8.70
2018-01-23T08:48:02.833Z,8.70
2018-01-23T08:50:30.634Z,8.70
2018-01-23T08:52:58.548Z,8.70
2018-01-23T08:55:26.118Z,8.80
2018-01-23T08:57:53.628Z,8.80
2018-01-23T09:00:21.348Z,8.90
2018-01-23T09:02:48.911Z,8.80
2018-01-23T09:05:17.229Z,8.90
2018-01-23T09:07:44.833Z,8.90
2018-01-23T09:10:12.349Z,9.00
2018-01-23T09:12:39.940Z,8.90
2018-01-23T09:15:07.564Z,8.80
2018-01-23T09:17:35.149Z,8.80
2018-01-23T09:20:02.897Z,8.70
2018-01-23T09:22:30.404Z,8.70
2018-01-23T09:24:58.687Z,8.80
2018-01-23T09:27:26.303Z,8.80
2018-01-23T09:29:53.948Z,8.80
2018-01-23T09:32:21.598Z,8.80
2018-01-23T09:34:49.148Z,8.90
2018-01-23T09:37:16.684Z,8.90
2018-01-23T09:39:45.016Z,9.00
2018-01-23T09:42:12.572Z,8.90
2018-01-23T09:44:40.151Z,9.00
2018-01-23T09:47:07.733Z,9.00
2018-01-23T09:49:35.302Z,9.00
2018-01-23T09:52:02.852Z,9.10
2018-01-23T09:54:30.412Z,9.10
2018-01-23T09:56:58.721Z,9.10
2018-01-23T09:59:26.303Z,9.10
2018-01-23T10:01:53.905Z,9.10
2018-01-23T10:04:21.431Z,9.00
2018-01-23T10:06:48.945Z,9.00
2018-01-23T10:09:17.373Z,9.00
2018-01-23T10:11:49.943Z,9.00
2018-01-23T10:14:17.465Z,9.10
2018-01-23T10:16:45.796Z,9.10
2018-01-23T10:19:13.402Z,9.10
2018-01-23T10:21:40.959Z,9.20
2018-01-23T10:24:08.519Z,9.20
2018-01-23T10:26:36.812Z,9.30
2018-01-23T10:29:04.400Z,9.30
2018-01-23T10:31:31.962Z,9.40
2018-01-23T10:33:59.540Z,9.40
2018-01-23T10:36:27.080Z,9.40
2018-01-23T10:38:54.663Z,9.40
2018-01-23T10:41:22.210Z,9.40
2018-01-23T10:43:50.291Z,9.40
2018-01-23T10:46:17.833Z,9.40
2018-01-23T10:48:45.371Z,9.50
2018-01-23T10:51:12.962Z,9.50
2018-01-23T10:53:40.574Z,9.50
2018-01-23T10:56:08.162Z,9.50
2018-01-23T10:58:35.753Z,9.60
2018-01-23T11:01:06.124Z,9.70
2018-01-23T11:03:33.691Z,9.70
2018-01-23T11:06:01.251Z,9.60
2018-01-23T11:08:28.846Z,9.60
2018-01-23T11:10:56.583Z,9.70
2018-01-23T11:13:24.191Z,9.70
2018-01-23T11:15:51.720Z,9.70
2018-01-23T11:18:19.265Z,9.70
2018-01-23T11:20:47.036Z,9.80
2018-01-23T11:23:14.658Z,9.90
2018-01-23T11:25:42.326Z,9.90
2018-01-23T11:28:10.663Z,9.90
2018-01-23T11:30:38.234Z,9.90
2018-01-23T11:33:05.834Z,9.90
2018-01-23T11:35:33.398Z,10.00
2018-01-23T11:38:00.969Z,10.00
2018-01-23T11:40:28.525Z,10.00
2018-01-23T11:42:56.080Z,10.10
2018-01-23T11:45:23.703Z,10.20
2018-01-23T11:47:51.282Z,10.20
2018-01-23T11:50:19.573Z,10.30
2018-01-23T11:52:47.136Z,10.20
2018-01-23T11:55:15.432Z,10.30
2018-01-23T11:57:42.997Z,10.20
2018-01-23T12:00:10.571Z,10.30
2018-01-23T12:02:38.156Z,10.30
2018-01-23T12:05:05.689Z,10.30
2018-01-23T12:07:33.271Z,10.30
2018-01-23T12:10:00.812Z,10.40
2018-01-23T12:12:28.459Z,10.40
2018-01-23T12:14:57.513Z,10.40
2018-01-23T12:17:25.086Z,10.40
2018-01-23T12:19:53.416Z,10.40
2018-01-23T12:22:21.205Z,10.40
2018-01-23T12:24:48.779Z,10.40
2018-01-23T12:27:16.453Z,10.50
2018-01-23T12:29:44.779Z,10.50
2018-01-23T12:32:12.341Z,10.50
2018-01-23T12:34:39.956Z,10.50
2018-01-23T12:37:07.481Z,10.50
2018-01-23T12:39:35.033Z,10.50
2018-01-23T12:42:02.624Z,10.60
2018-01-23T12:44:30.178Z,10.60
2018-01-23T12:46:58.527Z,10.60
2018-01-23T12:49:26.099Z,10.60
2018-01-23T12:51:53.720Z,10.60
2018-01-23T12:54:21.285Z,10.60
2018-01-23T12:56:48.823Z,10.70
2018-01-23T12:59:16.384Z,10.70
2018-01-23T13:01:49.029Z,10.70
2018-01-23T13:04:16.617Z,10.70
2018-01-23T13:06:44.172Z,10.70
2018-01-23T13:09:11.742Z,10.70
2018-01-23T13:11:39.322Z,10.70
2018-01-23T13:14:06.849Z,10.70
2018-01-23T13:16:34.389Z,10.70
2018-01-23T13:19:01.973Z,10.70
2018-01-23T13:21:29.696Z,10.70
2018-01-23T13:23:58.010Z,10.70
2018-01-23T13:26:25.571Z,10.70
2018-01-23T13:28:53.151Z,10.70
2018-01-23T13:31:20.713Z,10.80
2018-01-23T13:33:48.270Z,10.80
2018-01-23T13:36:15.855Z,10.80
2018-01-23T13:38:43.381Z,10.80
2018-01-23T13:41:11.038Z,10.80
2018-01-23T13:43:38.673Z,10.80
2018-01-23T13:46:07.007Z,10.80
2018-01-23T13:48:34.552Z,10.80
2018-01-23T13:51:02.141Z,10.70
2018-01-23T13:53:30.253Z,10.70
2018-01-23T13:55:57.800Z,10.70
2018-01-23T13:58:26.187Z,10.70
2018-01-23T14:00:54.554Z,10.70
2018-01-23T14:03:22.911Z,10.70
2018-01-23T14:05:50.442Z,10.70
2018-01-23T14:08:18.265Z,10.70
2018-01-23T14:10:45.837Z,10.70
2018-01-23T14:13:13.486Z,10.70
2018-01-23T14:15:41.012Z,10.70
2018-01-23T14:18:08.554Z,10.60
2018-01-23T14:20:36.291Z,10.60
2018-01-23T14:23:04.065Z,10.60
2018-01-23T14:25:31.644Z,10.60
2018-01-23T14:27:59.199Z,10.60
2018-01-23T14:30:26.762Z,10.60
2018-01-23T14:32:54.308Z,10.60
2018-01-23T14:35:21.930Z,10.60
2018-01-23T14:37:49.481Z,10.60
2018-01-23T14:40:17.007Z,10.70
2018-01-23T14:42:44.613Z,10.70
2018-01-23T14:45:12.150Z,10.70
2018-01-23T14:47:39.729Z,10.60
2018-01-23T14:50:07.380Z,10.60
2018-01-23T14:52:35.721Z,10.60
2018-01-23T14:55:03.633Z,10.60
2018-01-23T14:57:31.219Z,10.70
2018-01-23T14:59:58.829Z,10.60
2018-01-23T15:02:26.380Z,10.60
2018-01-23T15:04:59.746Z,10.60
2018-01-23T15:07:27.277Z,10.70
2018-01-23T15:09:55.613Z,10.60
2018-01-23T15:12:23.191Z,10.60
2018-01-23T15:14:50.876Z,10.60
2018-01-23T15:17:19.189Z,10.50
2018-01-23T15:19:46.754Z,10.60
2018-01-23T15:22:14.421Z,10.60
2018-01-23T15:24:42.032Z,10.60
2018-01-23T15:27:09.556Z,10.60
2018-01-23T15:29:37.205Z,10.60
2018-01-23T15:32:04.740Z,10.60
2018-01-23T15:34:32.390Z,10.60
2018-01-23T15:36:59.908Z,10.60
2018-01-23T15:39:27.516Z,10.60
2018-01-23T15:41:55.115Z,10.60
2018-01-23T15:44:22.680Z,10.60
2018-01-23T15:46:50.235Z,10.60
2018-01-23T15:49:17.802Z,10.60
2018-01-23T15:51:45.396Z,10.60
2018-01-23T15:54:13.416Z,10.60
2018-01-23T15:56:40.996Z,10.60
2018-01-23T15:59:08.604Z,10.60
2018-01-23T16:01:36.164Z,10.50
2018-01-23T16:04:03.768Z,10.50
2018-01-23T16:06:31.318Z,10.60
2018-01-23T16:08:58.897Z,10.50
2018-01-23T16:11:26.429Z,10.60
2018-01-23T16:13:54.021Z,10.60
2018-01-23T16:16:21.580Z,10.50
2018-01-23T16:18:49.137Z,10.60
2018-01-23T16:21:16.696Z,10.50
2018-01-23T16:23:44.223Z,10.50
2018-01-23T16:26:11.805Z,10.50
2018-01-23T16:28:39.398Z,10.50
2018-01-23T16:31:07.000Z,10.40
2018-01-23T16:33:34.532Z,10.40
2018-01-23T16:36:02.061Z,10.40
2018-01-23T16:38:29.643Z,10.40
2018-01-23T16:40:57.228Z,10.40
2018-01-23T16:43:24.812Z,10.40
2018-01-23T16:45:52.401Z,10.40
2018-01-23T16:48:19.985Z,10.40
2018-01-23T16:50:47.583Z,10.30
2018-01-23T16:53:15.113Z,10.30
2018-01-23T16:55:43.429Z,10.30
2018-01-23T16:58:11.729Z,11.60
2018-01-23T17:00:39.296Z,10.40
2018-01-23T17:03:06.869Z,10.40
2018-01-23T17:05:34.797Z,10.30
2018-01-23T17:08:02.373Z,10.40
2018-01-23T17:10:29.904Z,10.40
2018-01-23T17:12:57.501Z,10.40
2018-01-23T17:15:25.064Z,10.40
2018-01-23T17:17:52.630Z,10.40
2018-01-23T17:20:20.177Z,10.30
2018-01-23T17:22:47.737Z,10.20
2018-01-23T17:25:15.277Z,10.30
2018-01-23T17:27:42.920Z,10.20
2018-01-23T17:30:10.513Z,10.30
2018-01-23T17:32:38.096Z,10.30
2018-01-23T17:35:05.702Z,10.40
2018-01-23T17:37:33.328Z,10.40
2018-01-23T17:40:00.861Z,10.40
2018-01-23T17:42:28.417Z,10.30
2018-01-23T17:44:55.981Z,10.30
2018-01-23T17:47:24.313Z,10.30
2018-01-23T17:49:51.901Z,10.30
2018-01-23T17:52:19.464Z,10.30
2018-01-23T17:54:47.023Z,10.30
2018-01-23T17:57:14.565Z,10.20
2018-01-23T17:59:42.142Z,10.20
2018-01-23T18:02:09.738Z,10.20
2018-01-23T18:04:37.329Z,10.20
2018-01-23T18:07:04.953Z,10.20
2018-01-23T18:09:32.549Z,10.20
2018-01-23T18:12:00.104Z,10.20
2018-01-23T18:14:28.405Z,10.10
2018-01-23T18:16:56.030Z,10.10
2018-01-23T18:19:23.584Z,10.10
2018-01-23T18:21:51.180Z,10.10
2018-01-23T18:24:18.780Z,10.10
2018-01-23T18:26:46.368Z,10.10
2018-01-23T18:29:14.705Z,10.10
2018-01-23T18:31:42.266Z,10.10
2018-01-23T18:34:10.328Z,10.00
2018-01-23T18:36:37.889Z,10.00
2018-01-23T18:39:05.480Z,10.10
2018-01-23T18:41:33.072Z,10.00
2018-01-23T18:44:00.613Z,10.00
2018-01-23T18:46:28.177Z,10.00
2018-01-23T18:48:55.866Z,10.00
2018-01-23T18:51:23.436Z,9.90
2018-01-23T18:53:50.999Z,9.90
2018-01-23T18:56:18.595Z,9.90
2018-01-23T18:58:46.166Z,9.80
2018-01-23T19:01:13.756Z,9.90
2018-01-23T19:03:41.395Z,9.80
2018-01-23T19:06:08.951Z,9.90
2018-01-23T19:08:36.505Z,9.80
2018-01-23T19:11:04.334Z,9.80
2018-01-23T19:13:31.952Z,9.70
2018-01-23T19:15:59.523Z,9.70
2018-01-23T19:18:27.893Z,9.80
2018-01-23T19:20:56.236Z,9.80
2018-01-23T19:23:23.854Z,9.80
2018-01-23T19:25:51.421Z,9.70
2018-01-23T19:28:18.981Z,9.70
2018-01-23T19:30:46.514Z,9.60
2018-01-23T19:33:14.139Z,9.60
2018-01-23T19:35:41.735Z,9.60
2018-01-23T19:38:09.343Z,9.70
2018-01-23T19:40:36.931Z,9.70
2018-01-23T19:43:06.152Z,9.50
2018-01-23T19:45:34.468Z,9.40
2018-01-23T19:48:02.053Z,9.40
2018-01-23T19:50:29.638Z,9.30
2018-01-23T19:52:57.212Z,9.30
2018-01-23T19:55:25.498Z,9.30
2018-01-23T19:57:53.053Z,9.30
2018-01-23T20:00:21.400Z,9.20
2018-01-23T20:02:48.980Z,9.20
2018-01-23T20:05:16.516Z,9.20
2018-01-23T20:07:44.138Z,9.20
2018-01-23T20:10:11.678Z,9.20
2018-01-23T20:12:39.348Z,9.10
2018-01-23T20:15:06.868Z,9.10
2018-01-23T20:17:34.439Z,9.00
2018-01-23T20:20:02.032Z,9.00
2018-01-23T20:22:29.593Z,9.00
2018-01-23T20:24:57.204Z,9.00
2018-01-23T20:27:24.740Z,8.90
2018-01-23T20:29:52.313Z,8.90
2018-01-23T20:32:19.825Z,8.80
2018-01-23T20:34:47.436Z,8.80
2018-01-23T20:37:14.987Z,8.70
2018-01-23T20:39:42.619Z,8.70
2018-01-23T20:42:10.246Z,8.70
2018-01-23T20:44:37.780Z,8.70
2018-01-23T20:47:05.333Z,8.70
2018-01-23T20:49:32.940Z,8.80
2018-01-23T20:52:00.470Z,8.90
2018-01-23T20:54:28.037Z,8.80
2018-01-23T20:56:55.607Z,8.70
2018-01-23T20:59:23.949Z,8.60
2018-01-23T21:01:51.486Z,8.60
2018-01-23T21:04:19.067Z,8.50
2018-01-23T21:06:46.680Z,8.50
2018-01-23T21:09:14.210Z,8.60
2018-01-23T21:11:41.820Z,8.50
2018-01-23T21:14:09.388Z,8.60
2018-01-23T21:16:37.024Z,8.60
2018-01-23T21:19:04.625Z,8.60
2018-01-23T21:21:32.268Z,8.60
2018-01-23T21:23:59.798Z,8.50
2018-01-23T21:26:27.339Z,8.50
2018-01-23T21:28:55.829Z,8.40
2018-01-23T21:31:23.432Z,8.40
2018-01-23T21:33:50.965Z,8.50
2018-01-23T21:36:19.285Z,8.50
2018-01-23T21:38:46.876Z,8.50
2018-01-23T21:41:14.491Z,8.50
2018-01-23T21:43:42.104Z,8.50
2018-01-23T21:46:09.684Z,8.50
2018-01-23T21:48:37.281Z,8.50
2018-01-23T21:51:04.900Z,8.40
2018-01-23T21:53:32.433Z,8.40
2018-01-23T21:56:00.070Z,8.30
2018-01-23T21:58:27.692Z,8.30
2018-01-23T22:00:56.080Z,8.30
2018-01-23T22:03:23.608Z,8.30
2018-01-23T22:05:51.201Z,8.30
2018-01-23T22:08:18.756Z,8.20
2018-01-23T22:10:46.335Z,8.20
2018-01-23T22:13:13.893Z,8.20
2018-01-23T22:15:41.516Z,8.20
2018-01-23T22:18:09.104Z,8.20
2018-01-23T22:20:36.656Z,8.30
2018-01-23T22:23:04.219Z,8.30
2018-01-23T22:25:31.782Z,8.30
2018-01-23T22:27:59.335Z,8.30
2018-01-23T22:30:26.913Z,8.40
2018-01-23T22:32:55.243Z,8.10
2018-01-23T22:35:22.837Z,8.40
2018-01-23T22:37:50.360Z,8.30
2018-01-23T22:40:17.925Z,8.40
2018-01-23T22:42:45.481Z,8.40
2018-01-23T22:45:13.037Z,8.40
2018-01-23T22:47:40.556Z,8.40
2018-01-23T22:50:08.113Z,8.40
2018-01-23T22:52:35.624Z,8.30
2018-01-23T22:55:03.178Z,8.20
2018-01-23T22:57:30.743Z,8.20
2018-01-23T22:59:58.276Z,8.20
2018-01-23T23:02:25.816Z,8.30
2018-01-23T23:04:53.362Z,8.30
2018-01-23T23:07:20.937Z,8.20
2018-01-23T23:09:48.459Z,8.20
2018-01-23T23:12:15.981Z,8.30
2018-01-23T23:14:43.553Z,8.30
2018-01-23T23:17:11.064Z,8.30
2018-01-23T23:19:38.644Z,8.40
2018-01-23T23:22:06.159Z,8.30
2018-01-23T23:24:34.028Z,8.20
2018-01-23T23:27:01.576Z,8.20
2018-01-23T23:29:29.095Z,8.20
2018-01-23T23:31:57.134Z,8.20
2018-01-23T23:34:24.676Z,8.30
2018-01-23T23:36:52.254Z,8.30
2018-01-23T23:39:19.782Z,8.40
2018-01-23T23:41:47.309Z,8.40
2018-01-23T23:44:14.873Z,8.40
2018-01-23T23:46:42.432Z,8.30
2018-01-23T23:49:09.953Z,8.20
2018-01-23T23:51:37.708Z,8.30
2018-01-23T23:54:05.267Z,8.30
2018-01-23T23:56:32.780Z,8.20
2018-01-23T23:59:00.316Z,8.20
